Time;durP1;ratioP1;P1;durP2;ratioP2;P2;SDS_P1;SDS_P2;PMS_P1;PMS_P2;Temp;Humidity;BMP_temperature;BMP_pressure;BME280_temperature;BME280_humidity;BME280_pressure;Samples;Min_cycle;Max_cycle;Signal;HPM_P1;HPM_P2
2022/09/11 00:01:06;;;;;;;;;;;;;;;24.56;65.32;100415.69;7402975;19;1556;-58
2022/09/11 00:03:36;;;;;;;;;;;;;;;24.56;64.98;100421.09;7405726;19;1387;-59
2022/09/11 00:06:05;;;;;;;;;;;;;;;24.54;65.04;100407.75;7404727;19;1612;-60
2022/09/11 00:08:34;;;;;;;;;;;;;;;24.56;65.20;100397.59;7406670;19;1022;-59
2022/09/11 00:11:09;;;;;;;;;;;;;;;24.63;64.93;100410.38;7407055;19;1745;-60
2022/09/11 00:13:38;;;;;;;;;;;;;;;24.64;65.07;100422.88;7404691;19;1654;-75
2022/09/11 00:16:07;;;;;;;;;;;;;;;24.59;64.82;100412.59;7404005;19;1614;-76
2022/09/11 00:18:36;;;;;;;;;;;;;;;24.59;65.12;100408.06;7404689;19;1834;-76
2022/09/11 00:21:06;;;;;;;;;;;;;;;24.58;65.08;100406.34;7407222;19;999;-60
2022/09/11 00:23:35;;;;;;;;;;;;;;;24.59;65.25;100412.59;7406863;19;1669;-59
2022/09/11 00:26:04;;;;;;;;;;;;;;;24.57;64.99;100412.81;7404750;19;1760;-60
2022/09/11 00:28:35;;;;;;;;;;;;;;;24.58;64.98;100414.47;7405444;19;1544;-60
2022/09/11 00:31:04;;;;;;;;;;;;;;;24.54;65.02;100394.22;7405872;19;1052;-60
2022/09/11 00:33:33;;;;;;;;;;;;;;;24.56;65.23;100397.59;7405952;19;1654;-59
2022/09/11 00:36:03;;;;;;;;;;;;;;;24.54;65.20;100404.22;7406599;19;1071;-59
2022/09/11 00:38:33;;;;;;;;;;;;;;;24.56;65.14;100399.47;7405416;19;1849;-61
2022/09/11 00:41:02;;;;;;;;;;;;;;;24.55;65.18;100406.72;7403355;19;1729;-60
2022/09/11 00:43:31;;;;;;;;;;;;;;;24.56;65.23;100408.41;7404300;19;1622;-76
2022/09/11 00:46:05;;;;;;;;;;;;;;;24.58;65.25;100411.75;7402811;19;1535;-60
2022/09/11 00:48:36;;;;;;;;;;;;;;;24.56;65.19;100410.28;7403537;19;1626;-59
2022/09/11 00:51:06;;;;;;;;;;;;;;;24.56;64.96;100419.22;7404445;19;1618;-60
2022/09/11 00:53:37;;;;;;;;;;;;;;;24.57;65.28;100420.91;7405805;19;1032;-76
2022/09/11 00:56:09;;;;;;;;;;;;;;;24.52;65.22;100401.69;7404320;19;1603;-76
2022/09/11 00:58:40;;;;;;;;;;;;;;;24.54;65.29;100407.75;7402671;19;1861;-75
2022/09/11 01:01:13;;;;;;;;;;;;;;;24.55;65.15;100411.28;7402642;19;1536;-76
2022/09/11 01:03:41;;;;;;;;;;;;;;;24.53;65.18;100403.38;7404461;19;1614;-76
2022/09/11 01:06:10;;;;;;;;;;;;;;;24.55;65.16;100403.16;7403123;19;1527;-76
2022/09/11 01:08:39;;;;;;;;;;;;;;;24.55;64.90;100416.69;7405671;19;1040;-76
2022/09/11 01:11:14;;;;;;;;;;;;;;;24.57;64.98;100406.53;7404031;19;1654;-76
2022/09/11 01:13:46;;;;;;;;;;;;;;;24.55;65.16;100403.16;7412275;19;1622;-76
2022/09/11 01:16:21;;;;;;;;;;;;;;;24.56;65.30;100408.41;7412735;19;999;-77
2022/09/11 01:18:55;;;;;;;;;;;;;;;24.53;65.00;100414.19;7410300;19;1857;-76
2022/09/11 01:21:35;;;;;;;;;;;;;;;24.52;65.13;100393.56;7413743;19;950;-77
2022/09/11 01:24:10;;;;;;;;;;;;;;;24.56;65.05;100418.38;7413139;19;1074;-76
2022/09/11 01:26:54;;;;;;;;;;;;;;;24.57;65.10;100409.22;7408373;19;2168;-77
2022/09/11 01:29:28;;;;;;;;;;;;;;;24.58;65.30;100405.53;7411701;19;1662;-77
2022/09/11 01:31:59;;;;;;;;;;;;;;;24.53;65.12;100402.50;7407335;19;1611;-76
2022/09/11 01:34:33;;;;;;;;;;;;;;;24.54;65.18;100415.84;7412316;19;1622;-76
2022/09/11 01:37:05;;;;;;;;;;;;;;;24.53;65.10;100407.91;7412495;19;1847;-76
2022/09/11 01:39:36;;;;;;;;;;;;;;;24.52;65.29;100400.84;7408760;19;1752;-76
2022/09/11 01:42:06;;;;;;;;;;;;;;;24.52;65.18;100415.19;7412490;19;1083;-76
2022/09/11 01:44:38;;;;;;;;;;;;;;;24.48;65.17;100400.31;7411498;19;1686;-59
2022/09/11 01:47:09;;;;;;;;;;;;;;;24.52;65.11;100412.50;7411281;19;1753;-60
2022/09/11 01:49:40;;;;;;;;;;;;;;;24.50;65.26;100406.41;7411274;19;1632;-76
2022/09/11 01:52:10;;;;;;;;;;;;;;;24.54;65.15;100421.25;7412143;19;1496;-76
2022/09/11 01:54:42;;;;;;;;;;;;;;;24.51;65.00;100424.34;7410264;19;1501;-76
2022/09/11 01:57:12;;;;;;;;;;;;;;;24.53;65.29;100414.19;7411974;19;1845;-76
2022/09/11 01:59:46;;;;;;;;;;;;;;;24.52;65.15;100435.97;7412089;19;1563;-76
2022/09/11 02:02:15;;;;;;;;;;;;;;;24.52;65.21;100417.91;7400821;19;1754;-60
2022/09/11 02:04:47;;;;;;;;;;;;;;;24.52;65.26;100412.50;7408843;19;1438;-60
2022/09/11 02:07:18;;;;;;;;;;;;;;;24.51;65.24;100416.22;7408394;19;1575;-60
2022/09/11 02:09:49;;;;;;;;;;;;;;;24.54;65.30;100410.44;7409116;19;1602;-60
2022/09/11 02:12:19;;;;;;;;;;;;;;;24.52;65.27;100415.19;7410451;19;1004;-60
2022/09/11 02:14:52;;;;;;;;;;;;;;;24.55;65.09;100422.09;7411627;19;968;-60
2022/09/11 02:17:25;;;;;;;;;;;;;;;24.50;65.10;100411.81;7407752;19;1842;-60
2022/09/11 02:19:55;;;;;;;;;;;;;;;24.50;65.15;100411.81;7409360;19;1031;-60
2022/09/11 02:22:23;;;;;;;;;;;;;;;24.53;64.99;100418.72;7409702;19;1769;-60
2022/09/11 02:24:52;;;;;;;;;;;;;;;24.52;65.37;100401.69;7406307;19;1748;-60
2022/09/11 02:27:23;;;;;;;;;;;;;;;24.50;65.34;100390.19;7411309;19;993;-60
2022/09/11 02:29:55;;;;;;;;;;;;;;;24.48;65.24;100388.69;7410449;19;1015;-60
2022/09/11 02:32:24;;;;;;;;;;;;;;;24.48;65.07;100400.31;7408069;19;1610;-60
2022/09/11 02:34:54;;;;;;;;;;;;;;;24.49;65.00;100403.84;7409482;19;1547;-60
2022/09/11 02:37:30;;;;;;;;;;;;;;;24.52;65.07;100417.91;7409499;19;1850;-60
2022/09/11 02:40:07;;;;;;;;;;;;;;;24.48;65.18;100399.50;7407561;19;1627;-60
2022/09/11 02:42:41;;;;;;;;;;;;;;;24.45;65.07;100422.28;7408758;19;1735;-60
2022/09/11 02:45:17;;;;;;;;;;;;;;;24.51;65.35;100424.34;7409054;19;1528;-60
2022/09/11 02:47:51;;;;;;;;;;;;;;;24.49;65.20;100410.13;7409530;19;1519;-60
2022/09/11 02:50:26;;;;;;;;;;;;;;;24.47;65.37;100414.88;7409313;19;1536;-60
2022/09/11 02:52:58;;;;;;;;;;;;;;;24.51;65.35;100410.81;7410473;19;1540;-60
2022/09/11 02:55:34;;;;;;;;;;;;;;;24.46;65.11;100410.47;7409552;19;1603;-60
2022/09/11 02:58:04;;;;;;;;;;;;;;;24.42;65.12;100395.66;7408905;19;1853;-60
2022/09/11 03:00:36;;;;;;;;;;;;;;;24.44;65.11;100407.13;7406594;19;1588;-60
2022/09/11 03:03:05;;;;;;;;;;;;;;;24.45;65.22;100399.84;7406565;19;1534;-60
2022/09/11 03:05:36;;;;;;;;;;;;;;;24.46;65.26;100407.78;7406425;19;1518;-76
2022/09/11 03:08:06;;;;;;;;;;;;;;;24.49;65.04;100420.94;7408934;19;1523;-76
2022/09/11 03:10:34;;;;;;;;;;;;;;;24.47;65.02;100414.00;7407240;19;1337;-76
2022/09/11 03:13:02;;;;;;;;;;;;;;;24.48;64.97;100427.34;7405594;19;1339;-76
2022/09/11 03:15:30;;;;;;;;;;;;;;;24.48;64.94;100413.84;7406975;19;1310;-76
2022/09/11 03:18:02;;;;;;;;;;;;;;;24.45;64.96;100403.38;7407054;19;1852;-75
2022/09/11 03:20:30;;;;;;;;;;;;;;;24.44;65.13;100404.41;7407798;19;1266;-60
2022/09/11 03:22:58;;;;;;;;;;;;;;;24.47;65.25;100414.00;7402265;19;1359;-76
2022/09/11 03:25:27;;;;;;;;;;;;;;;24.46;65.24;100407.78;7404874;19;1275;-60
2022/09/11 03:27:55;;;;;;;;;;;;;;;24.47;65.32;100411.31;7405047;19;1382;-76
2022/09/11 03:30:23;;;;;;;;;;;;;;;24.46;65.31;100413.19;7406692;19;1485;-76
2022/09/11 03:32:52;;;;;;;;;;;;;;;24.46;65.30;100412.34;7406487;19;1334;-76
2022/09/11 03:35:23;;;;;;;;;;;;;;;24.45;65.33;100427.69;7406011;19;1038;-59
2022/09/11 03:37:51;;;;;;;;;;;;;;;24.45;65.18;100427.69;7406607;19;1868;-59
2022/09/11 03:40:20;;;;;;;;;;;;;;;24.43;65.09;100418.94;7406515;19;1392;-59
2022/09/11 03:42:48;;;;;;;;;;;;;;;24.42;65.14;100412.69;7408159;19;1194;-59
2022/09/11 03:45:17;;;;;;;;;;;;;;;24.44;65.10;100420.63;7407114;19;1352;-59
2022/09/11 03:47:45;;;;;;;;;;;;;;;24.42;65.08;100415.41;7405162;19;1220;-59
2022/09/11 03:50:14;;;;;;;;;;;;;;;24.44;65.04;100420.63;7408053;19;1051;-59
2022/09/11 03:52:45;;;;;;;;;;;;;;;24.42;65.33;100422.66;7406636;19;1289;-59
2022/09/11 03:55:13;;;;;;;;;;;;;;;24.42;65.07;100423.50;7406629;19;1466;-59
2022/09/11 03:57:41;;;;;;;;;;;;;;;24.46;65.26;100437.50;7406758;19;1872;-59
2022/09/11 04:00:10;;;;;;;;;;;;;;;24.45;65.05;100433.09;7406968;19;1375;-59
2022/09/11 04:02:38;;;;;;;;;;;;;;;24.42;64.94;100430.78;7403789;19;1426;-60
2022/09/11 04:05:07;;;;;;;;;;;;;;;24.46;65.04;100442.06;7405219;19;1582;-60
2022/09/11 04:07:35;;;;;;;;;;;;;;;24.48;65.22;100432.75;7405708;19;1134;-60
2022/09/11 04:10:07;;;;;;;;;;;;;;;24.43;65.28;100435.16;7405024;19;1768;-60
2022/09/11 04:12:35;;;;;;;;;;;;;;;24.44;65.18;100436.84;7405419;19;1646;-60
2022/09/11 04:15:03;;;;;;;;;;;;;;;24.45;65.31;100426.88;7407838;19;1007;-60
2022/09/11 04:17:31;;;;;;;;;;;;;;;24.46;64.84;100450.19;7405036;19;1765;-60
2022/09/11 04:19:59;;;;;;;;;;;;;;;24.48;65.08;100448.97;7404811;19;1838;-61
2022/09/11 04:22:28;;;;;;;;;;;;;;;24.51;64.88;100456.78;7404132;19;1697;-60
2022/09/11 04:24:56;;;;;;;;;;;;;;;24.49;65.03;100441.69;7403355;19;1630;-77
2022/09/11 04:27:27;;;;;;;;;;;;;;;24.53;65.25;100465.53;7406091;19;1778;-77
2022/09/11 04:29:55;;;;;;;;;;;;;;;24.49;64.99;100456.09;7403810;19;1666;-77
2022/09/11 04:32:23;;;;;;;;;;;;;;;24.47;64.90;100447.31;7406641;19;1547;-77
2022/09/11 04:34:52;;;;;;;;;;;;;;;24.44;65.14;100442.25;7406062;19;1563;-77
2022/09/11 04:37:21;;;;;;;;;;;;;;;24.46;65.04;100439.38;7403859;19;1650;-77
2022/09/11 04:39:50;;;;;;;;;;;;;;;24.46;65.19;100442.91;7403585;19;1810;-77
2022/09/11 04:42:18;;;;;;;;;;;;;;;24.48;65.07;100440.88;7407139;19;1004;-77
2022/09/11 04:44:49;;;;;;;;;;;;;;;24.44;64.97;100458.47;7405152;19;1722;-77
2022/09/11 04:47:17;;;;;;;;;;;;;;;24.42;65.20;100447.81;7405648;19;1535;-77
2022/09/11 04:49:46;;;;;;;;;;;;;;;24.45;65.03;100452.03;7405193;19;1638;-77
2022/09/11 04:52:14;;;;;;;;;;;;;;;24.48;64.90;100450.84;7405417;19;1600;-77
2022/09/11 04:54:42;;;;;;;;;;;;;;;24.42;65.26;100450.53;7404701;19;1532;-77
2022/09/11 04:57:10;;;;;;;;;;;;;;;24.45;65.07;100467.41;7406251;19;960;-77
2022/09/11 04:59:39;;;;;;;;;;;;;;;24.46;64.96;100461.84;7403541;19;1856;-60
2022/09/11 05:02:09;;;;;;;;;;;;;;;24.45;64.82;100449.31;7404276;19;1295;-77
2022/09/11 05:04:38;;;;;;;;;;;;;;;24.46;65.16;100455.59;7406127;19;1011;-77
2022/09/11 05:07:06;;;;;;;;;;;;;;;24.49;65.06;100461.50;7405000;19;1666;-77
2022/09/11 05:09:35;;;;;;;;;;;;;;;24.47;65.08;100449.16;7402432;19;1707;-77
2022/09/11 05:12:03;;;;;;;;;;;;;;;24.51;65.05;100464.03;7404648;19;1555;-78
2022/09/11 05:14:33;;;;;;;;;;;;;;;24.55;65.10;100455.41;7405579;19;965;-78
2022/09/11 05:17:01;;;;;;;;;;;;;;;24.54;64.92;100442.06;7401362;19;1701;-78
2022/09/11 05:19:32;;;;;;;;;;;;;;;24.55;64.81;100466.22;7403861;19;1868;-78
2022/09/11 05:22:00;;;;;;;;;;;;;;;24.55;64.84;100450.00;7404120;19;1776;-78
2022/09/11 05:24:29;;;;;;;;;;;;;;;24.54;64.69;100452.88;7405165;19;999;-78
2022/09/11 05:26:57;;;;;;;;;;;;;;;24.57;64.83;100469.56;7404826;19;1690;-78
2022/09/11 05:29:28;;;;;;;;;;;;;;;24.64;64.76;100464.28;7403165;19;1707;-78
2022/09/11 05:31:57;;;;;;;;;;;;;;;24.64;64.55;100466.16;7403491;19;1239;-78
2022/09/11 05:34:27;;;;;;;;;;;;;;;24.64;64.70;100463.44;7403444;19;1555;-77
2022/09/11 05:37:01;;;;;;;;;;;;;;;24.69;64.53;100461.03;7403853;19;1360;-60
2022/09/11 05:39:29;;;;;;;;;;;;;;;24.67;64.46;100468.47;7403679;19;1871;-60
2022/09/11 05:41:57;;;;;;;;;;;;;;;24.67;64.52;100461.22;7404116;19;1653;-60
2022/09/11 05:44:25;;;;;;;;;;;;;;;24.68;64.39;100464.75;7402437;19;1706;-60
2022/09/11 05:46:53;;;;;;;;;;;;;;;24.73;64.60;100479.44;7403163;19;1548;-60
2022/09/11 05:49:22;;;;;;;;;;;;;;;24.70;64.62;100470.81;7401696;19;1559;-60
2022/09/11 05:51:50;;;;;;;;;;;;;;;24.65;64.48;100463.28;7401437;19;1282;-60
2022/09/11 05:54:21;;;;;;;;;;;;;;;24.69;64.68;100466.44;7404162;19;1153;-60
2022/09/11 05:56:49;;;;;;;;;;;;;;;24.76;64.34;100465.53;7402416;19;1756;-78
2022/09/11 05:59:19;;;;;;;;;;;;;;;24.74;64.29;100470.28;7406088;19;1873;-78
2022/09/11 06:01:47;;;;;;;;;;;;;;;24.74;64.39;100470.28;7406704;19;1472;-78
2022/09/11 06:04:17;;;;;;;;;;;;;;;24.78;64.22;100463.47;7410207;19;1282;-78
2022/09/11 06:06:46;;;;;;;;;;;;;;;24.78;64.09;100468.06;7410116;19;1549;-78
2022/09/11 06:09:15;;;;;;;;;;;;;;;24.78;64.16;100471.59;7411426;19;1003;-78
2022/09/11 06:11:46;;;;;;;;;;;;;;;24.79;64.02;100467.88;7410615;19;1587;-78
2022/09/11 06:14:14;;;;;;;;;;;;;;;24.80;64.29;100453.31;7410008;19;1663;-78
2022/09/11 06:16:42;;;;;;;;;;;;;;;24.79;64.28;100451.66;7409757;19;1587;-78
2022/09/11 06:19:11;;;;;;;;;;;;;;;24.81;64.15;100454.19;7408793;19;1869;-78
2022/09/11 06:21:39;;;;;;;;;;;;;;;24.87;64.03;100458.00;7409466;19;1633;-78
2022/09/11 06:24:08;;;;;;;;;;;;;;;24.81;64.24;100463.13;7409684;19;1034;-78
2022/09/11 06:26:37;;;;;;;;;;;;;;;24.83;64.31;100460.25;7409868;19;1658;-78
2022/09/11 06:29:13;;;;;;;;;;;;;;;24.73;63.62;100451.53;7410102;19;1622;-79
2022/09/11 06:31:42;;;;;;;;;;;;;;;24.28;62.08;100461.28;7408923;19;1532;-79
2022/09/11 06:34:10;;;;;;;;;;;;;;;23.98;60.98;100464.63;7409109;19;1527;-78
2022/09/11 06:36:38;;;;;;;;;;;;;;;23.87;60.96;100464.16;7408420;19;1008;-79
2022/09/11 06:39:07;;;;;;;;;;;;;;;23.94;60.49;100474.09;7408310;19;1846;-79
2022/09/11 06:41:35;;;;;;;;;;;;;;;23.85;60.57;100455.41;7408501;19;1765;-79
2022/09/11 06:44:03;;;;;;;;;;;;;;;23.82;60.31;100464.72;7409040;19;1804;-78
2022/09/11 06:46:34;;;;;;;;;;;;;;;23.93;60.20;100466.16;7408112;19;1488;-78
2022/09/11 06:49:03;;;;;;;;;;;;;;;23.98;60.08;100461.09;7407619;19;1559;-59
2022/09/11 06:51:32;;;;;;;;;;;;;;;23.90;59.72;100469.22;7409897;19;1615;-79
2022/09/11 06:54:01;;;;;;;;;;;;;;;23.88;60.10;100464.00;7409986;19;914;-78
2022/09/11 06:56:31;;;;;;;;;;;;;;;23.97;60.10;100483.69;7407933;19;1765;-79
2022/09/11 06:58:59;;;;;;;;;;;;;;;24.11;59.93;100457.81;7408633;19;1853;-79
2022/09/11 07:01:27;;;;;;;;;;;;;;;24.14;59.77;100468.28;7406768;19;1630;-78
2022/09/11 07:03:58;;;;;;;;;;;;;;;24.05;59.95;100478.25;7407790;19;1615;-79
2022/09/11 07:06:29;;;;;;;;;;;;;;;24.15;59.85;100476.22;7408976;19;1629;-79
2022/09/11 07:08:59;;;;;;;;;;;;;;;24.10;59.42;100466.94;7408239;19;1035;-79
2022/09/11 07:11:28;;;;;;;;;;;;;;;24.07;59.42;100476.22;7407523;19;1720;-79
2022/09/11 07:13:56;;;;;;;;;;;;;;;24.05;59.11;100462.06;7408598;19;1914;-78
2022/09/11 07:16:24;;;;;;;;;;;;;;;24.04;58.64;100457.69;7404248;19;1556;-78
2022/09/11 07:18:53;;;;;;;;;;;;;;;24.12;58.88;100470.31;7408401;19;1842;-79
2022/09/11 07:21:25;;;;;;;;;;;;;;;24.09;58.81;100476.06;7406346;19;1568;-78
2022/09/11 07:23:55;;;;;;;;;;;;;;;24.11;59.01;100479.41;7406675;19;1465;-79
2022/09/11 07:26:25;;;;;;;;;;;;;;;24.13;58.41;100480.94;7408139;19;1626;-78
2022/09/11 07:28:54;;;;;;;;;;;;;;;24.09;58.59;100479.59;7407564;19;1028;-58
2022/09/11 07:31:24;;;;;;;;;;;;;;;24.04;58.09;100484.69;7408246;19;1647;-59
2022/09/11 07:33:54;;;;;;;;;;;;;;;24.10;57.81;100478.59;7406829;19;1761;-58
2022/09/11 07:36:26;;;;;;;;;;;;;;;24.06;57.98;100498.03;7407337;19;1693;-58
2022/09/11 07:38:55;;;;;;;;;;;;;;;24.01;57.68;100487.72;7408433;19;1845;-58
2022/09/11 07:41:24;;;;;;;;;;;;;;;24.03;58.18;100477.59;7408872;19;1010;-58
2022/09/11 07:43:54;;;;;;;;;;;;;;;24.11;57.96;100477.56;7407658;19;1630;-58
2022/09/11 07:46:26;;;;;;;;;;;;;;;24.12;58.40;100481.94;7405715;19;1749;-58
2022/09/11 07:48:54;;;;;;;;;;;;;;;24.25;58.10;100473.25;7405069;19;1463;-77
2022/09/11 07:51:25;;;;;;;;;;;;;;;24.22;58.04;100463.66;7405698;19;1884;-59
2022/09/11 07:53:54;;;;;;;;;;;;;;;24.16;57.65;100479.75;7405890;19;1489;-58
2022/09/11 07:56:23;;;;;;;;;;;;;;;24.18;57.88;100481.25;7406723;19;1304;-59
2022/09/11 07:58:52;;;;;;;;;;;;;;;24.33;57.85;100483.19;7405736;19;1318;-59
2022/09/11 08:01:22;;;;;;;;;;;;;;;24.30;57.52;100478.16;7404455;19;1844;-59
2022/09/11 08:03:55;;;;;;;;;;;;;;;24.34;57.86;100474.91;7405967;19;1442;-77
2022/09/11 08:06:27;;;;;;;;;;;;;;;24.38;57.84;100481.63;7406117;19;1448;-77
2022/09/11 08:08:56;;;;;;;;;;;;;;;24.46;57.75;100502.38;7407104;19;1288;-79
2022/09/11 08:11:24;;;;;;;;;;;;;;;24.39;57.79;100475.22;7404040;19;1772;-77
2022/09/11 08:13:53;;;;;;;;;;;;;;;24.38;57.74;100475.41;7405395;19;1646;-77
2022/09/11 08:16:23;;;;;;;;;;;;;;;24.45;57.69;100479.06;7405711;19;1630;-77
2022/09/11 08:18:52;;;;;;;;;;;;;;;24.60;57.75;100487.28;7407185;19;1089;-57
2022/09/11 08:21:21;;;;;;;;;;;;;;;24.59;57.48;100478.34;7403247;19;1830;-58
2022/09/11 08:23:52;;;;;;;;;;;;;;;24.58;57.72;100476.66;7405835;19;1626;-77
2022/09/11 08:26:22;;;;;;;;;;;;;;;24.46;57.96;100472.66;7403876;19;1567;-77
2022/09/11 08:28:51;;;;;;;;;;;;;;;24.55;57.96;100479.72;7404593;19;1544;-58
2022/09/11 08:31:21;;;;;;;;;;;;;;;24.60;57.88;100452.97;7404239;19;1558;-58
2022/09/11 08:33:49;;;;;;;;;;;;;;;24.70;57.51;100462.72;7405615;19;1302;-58
2022/09/11 08:36:17;;;;;;;;;;;;;;;24.79;57.30;100456.22;7402889;19;1281;-58
2022/09/11 08:38:46;;;;;;;;;;;;;;;24.76;57.81;100440.34;7405164;19;1485;-78
2022/09/11 08:41:27;;;;;;;;;;;;;;;24.78;56.81;100441.00;7401232;19;1870;-77
2022/09/11 08:43:57;;;;;;;;;;;;;;;24.80;57.26;100436.25;7405033;19;1397;-77
2022/09/11 08:46:28;;;;;;;;;;;;;;;24.84;57.02;100448.41;7399960;19;1501;-78
2022/09/11 08:49:02;;;;;;;;;;;;;;;24.89;57.32;100435.19;7403610;19;1327;-59
2022/09/11 08:51:31;;;;;;;;;;;;;;;24.91;56.70;100443.09;7402507;19;1382;-60
2022/09/11 08:54:01;;;;;;;;;;;;;;;24.94;57.57;100448.97;7403527;19;1296;-59
2022/09/11 08:56:35;;;;;;;;;;;;;;;24.96;57.19;100440.69;7402736;19;1371;-60
2022/09/11 08:59:12;;;;;;;;;;;;;;;25.04;57.03;100453.31;7401367;19;1481;-59
2022/09/11 09:01:45;;;;;;;;;;;;;;;25.00;57.64;100436.59;7403029;19;1853;-78
2022/09/11 09:04:25;;;;;;;;;;;;;;;25.06;57.46;100451.25;7405609;19;1244;-76
2022/09/11 09:07:00;;;;;;;;;;;;;;;25.07;57.70;100442.09;7404959;19;1405;-79
2022/09/11 09:09:33;;;;;;;;;;;;;;;25.10;57.62;100436.34;7402903;19;1301;-77
2022/09/11 09:12:08;;;;;;;;;;;;;;;25.09;57.89;100421.13;7404626;19;1364;-77
2022/09/11 09:14:51;;;;;;;;;;;;;;;25.04;57.87;100410.03;7406237;19;1134;-75
2022/09/11 09:17:21;;;;;;;;;;;;;;;25.12;58.15;100434.28;7403510;19;1575;-74
2022/09/11 09:19:51;;;;;;;;;;;;;;;25.09;58.79;100421.13;7402002;19;1833;-60
2022/09/11 09:22:22;;;;;;;;;;;;;;;25.05;58.99;100417.09;7404922;19;1552;-75
2022/09/11 09:24:52;;;;;;;;;;;;;;;25.07;58.80;100425.88;7403051;19;1234;-75
2022/09/11 09:27:27;;;;;;;;;;;;;;;25.09;58.84;100413.00;7404539;19;1456;-75
2022/09/11 09:29:56;;;;;;;;;;;;;;;25.09;58.71;100424.69;7405261;19;1400;-75
2022/09/11 09:32:27;;;;;;;;;;;;;;;25.12;58.67;100418.88;7405598;19;1114;-75
2022/09/11 09:34:59;;;;;;;;;;;;;;;25.13;58.53;100420.59;7411441;19;1775;-74
2022/09/11 09:37:29;;;;;;;;;;;;;;;25.17;58.44;100421.06;7411907;19;1372;-75
2022/09/11 09:39:59;;;;;;;;;;;;;;;25.08;58.85;100405.91;7407727;19;1856;-65
2022/09/11 09:42:42;;;;;;;;;;;;;;;25.10;59.32;100420.09;7412201;19;1654;-72
2022/09/11 09:45:36;;;;;;;;;;;;;;;25.19;59.34;100419.00;7411989;19;1649;-71
2022/09/11 09:48:05;;;;;;;;;;;;;;;25.18;59.58;100407.31;7407590;19;1483;-72
2022/09/11 09:50:35;;;;;;;;;;;;;;;25.20;59.29;100396.31;7410546;19;1748;-67
2022/09/11 09:53:05;;;;;;;;;;;;;;;25.19;59.52;100402.78;7411056;19;1555;-70
2022/09/11 09:55:34;;;;;;;;;;;;;;;25.23;59.65;100395.13;7411622;19;1531;-65
2022/09/11 09:58:06;;;;;;;;;;;;;;;25.19;59.45;100403.59;7409407;19;1594;-68
2022/09/11 10:00:34;;;;;;;;;;;;;;;25.27;59.44;100397.31;7409892;19;1850;-64
2022/09/11 10:03:18;;;;;;;;;;;;;;;25.34;59.88;100400.91;7405837;19;1636;-65
2022/09/11 10:05:46;;;;;;;;;;;;;;;25.27;59.95;100389.19;7411462;19;953;-68
2022/09/11 10:08:26;;;;;;;;;;;;;;;25.30;60.34;100396.06;7410931;19;1709;-66
2022/09/11 10:10:57;;;;;;;;;;;;;;;25.34;60.43;100394.69;7409139;19;1690;-65
2022/09/11 10:13:29;;;;;;;;;;;;;;;25.33;60.55;100393.84;7409740;19;1599;-63
2022/09/11 10:15:58;;;;;;;;;;;;;;;25.34;60.50;100387.38;7410160;19;1315;-70
2022/09/11 10:18:36;;;;;;;;;;;;;;;25.24;61.24;100384.13;7408850;19;1689;-67
2022/09/11 10:21:32;;;;;;;;;;;;;;;25.35;60.76;100386.38;7409628;19;1847;-70
2022/09/11 10:24:01;;;;;;;;;;;;;;;25.28;60.60;100385.44;7406248;19;1784;-69
2022/09/11 10:26:33;;;;;;;;;;;;;;;25.25;60.41;100379.53;7410495;19;1558;-70
2022/09/11 10:29:08;;;;;;;;;;;;;;;25.29;60.20;100397.13;7410787;19;1512;-59
2022/09/11 10:31:40;;;;;;;;;;;;;;;25.26;60.10;100381.25;7409457;19;1590;-70
2022/09/11 10:34:08;;;;;;;;;;;;;;;25.26;60.02;100378.53;7407633;19;1547;-70
2022/09/11 10:36:36;;;;;;;;;;;;;;;25.24;60.02;100356.22;7407591;19;1306;-70
2022/09/11 10:39:05;;;;;;;;;;;;;;;25.24;59.88;100362.47;7410878;19;1211;-70
2022/09/11 10:41:35;;;;;;;;;;;;;;;25.21;59.88;100373.66;7407668;19;1851;-71
2022/09/11 10:44:12;;;;;;;;;;;;;;;25.28;60.13;100390.84;7409423;19;1574;-71
2022/09/11 10:46:41;;;;;;;;;;;;;;;25.27;60.06;100372.06;7410137;19;1622;-71
2022/09/11 10:49:16;;;;;;;;;;;;;;;25.24;59.75;100367.06;7409165;19;1540;-71
2022/09/11 10:51:59;;;;;;;;;;;;;;;25.25;59.67;100361.47;7409842;19;1554;-71
2022/09/11 10:54:33;;;;;;;;;;;;;;;25.26;59.56;100368.53;7407714;19;1978;-71
2022/09/11 10:57:06;;;;;;;;;;;;;;;25.28;59.43;100363.78;7409573;19;1903;-71
2022/09/11 10:59:45;;;;;;;;;;;;;;;25.29;59.54;100364.66;7409193;19;1786;-71
2022/09/11 11:02:19;;;;;;;;;;;;;;;25.23;59.46;100368.06;7406084;19;1882;-71
2022/09/11 11:04:48;;;;;;;;;;;;;;;25.24;59.61;100362.47;7408185;19;1673;-71
2022/09/11 11:07:23;;;;;;;;;;;;;;;25.25;59.42;100366.00;7407163;19;1638;-71
2022/09/11 11:09:58;;;;;;;;;;;;;;;25.22;59.70;100369.13;7408242;19;1589;-71
2022/09/11 11:12:39;;;;;;;;;;;;;;;25.22;59.46;100359.13;7408734;19;1599;-71
2022/09/11 11:15:22;;;;;;;;;;;;;;;25.25;59.30;100368.72;7409638;19;987;-71
2022/09/11 11:18:00;;;;;;;;;;;;;;;25.21;59.15;100357.41;7408137;19;1705;-70
2022/09/11 11:20:33;;;;;;;;;;;;;;;25.22;59.50;100361.00;7408362;19;1853;-71
2022/09/11 11:23:16;;;;;;;;;;;;;;;25.23;59.26;100354.53;7407724;19;1192;-71
2022/09/11 11:25:49;;;;;;;;;;;;;;;25.21;59.17;100354.72;7407775;19;1314;-71
2022/09/11 11:28:23;;;;;;;;;;;;;;;25.22;59.26;100361.00;7407467;19;1559;-71
2022/09/11 11:30:59;;;;;;;;;;;;;;;25.19;59.22;100348.66;7406490;19;1662;-71
2022/09/11 11:33:40;;;;;;;;;;;;;;;25.20;59.22;100355.72;7404314;19;1278;-71
2022/09/11 11:36:14;;;;;;;;;;;;;;;25.18;58.95;100363.19;7406064;19;1618;-70
2022/09/11 11:38:45;;;;;;;;;;;;;;;25.20;59.03;100347.59;7409247;19;975;-71
2022/09/11 11:41:17;;;;;;;;;;;;;;;25.22;58.99;100347.47;7405693;19;1857;-59
2022/09/11 11:43:47;;;;;;;;;;;;;;;25.18;59.16;100341.53;7407293;19;1638;-70
2022/09/11 11:46:18;;;;;;;;;;;;;;;25.14;59.11;100356.47;7406691;19;1567;-70
2022/09/11 11:48:54;;;;;;;;;;;;;;;25.17;59.15;100339.88;7406820;19;1574;-70
2022/09/11 11:51:26;;;;;;;;;;;;;;;25.14;59.03;100342.94;7408189;19;1618;-70
2022/09/11 11:54:01;;;;;;;;;;;;;;;25.15;59.16;100344.63;7407396;19;1127;-59
2022/09/11 11:56:34;;;;;;;;;;;;;;;25.15;59.09;100329.25;7404652;19;1710;-70
2022/09/11 11:59:06;;;;;;;;;;;;;;;25.15;59.11;100337.34;7407661;19;1560;-59
2022/09/11 12:01:37;;;;;;;;;;;;;;;25.14;59.06;100340.25;7405857;19;1857;-59
2022/09/11 12:04:16;;;;;;;;;;;;;;;25.13;59.05;100322.34;7405991;19;1609;-59
2022/09/11 12:06:44;;;;;;;;;;;;;;;25.09;59.13;100331.81;7406575;19;1571;-70
2022/09/11 12:09:17;;;;;;;;;;;;;;;25.14;59.18;100340.25;7407298;19;1567;-70
2022/09/11 12:11:47;;;;;;;;;;;;;;;25.11;58.96;100336.06;7406106;19;1786;-71
2022/09/11 12:14:26;;;;;;;;;;;;;;;25.11;59.19;100324.38;7406258;19;1784;-71
2022/09/11 12:16:55;;;;;;;;;;;;;;;25.13;58.82;100327.75;7406133;19;1634;-70
2022/09/11 12:19:26;;;;;;;;;;;;;;;25.16;58.97;100340.88;7405447;19;1411;-59
2022/09/11 12:22:06;;;;;;;;;;;;;;;25.15;58.95;100337.34;7405185;19;1869;-58
2022/09/11 12:24:53;;;;;;;;;;;;;;;25.13;59.05;100319.63;7406875;19;1304;-70
2022/09/11 12:27:51;;;;;;;;;;;;;;;25.14;58.74;100324.00;7407150;19;1233;-59
2022/09/11 12:30:24;;;;;;;;;;;;;;;25.14;58.63;100319.44;7402491;19;1431;-59
2022/09/11 12:32:53;;;;;;;;;;;;;;;25.16;58.56;100321.94;7405071;19;1453;-58
2022/09/11 12:35:27;;;;;;;;;;;;;;;25.11;58.59;100318.97;7406094;19;1453;-70
2022/09/11 12:37:58;;;;;;;;;;;;;;;25.13;58.73;100311.53;7405268;19;1360;-70
2022/09/11 12:40:32;;;;;;;;;;;;;;;25.10;58.42;100303.75;7405259;19;1453;-70
2022/09/11 12:43:17;;;;;;;;;;;;;;;25.12;58.21;100320.66;7404770;19;1378;-70
2022/09/11 12:45:47;;;;;;;;;;;;;;;25.10;58.35;100311.88;7403709;19;1871;-59
2022/09/11 12:48:16;;;;;;;;;;;;;;;25.09;58.35;100310.19;7404192;19;1419;-58
2022/09/11 12:50:55;;;;;;;;;;;;;;;25.10;58.37;100312.72;7405285;19;1603;-59
2022/09/11 12:53:25;;;;;;;;;;;;;;;25.12;58.21;100309.81;7405254;19;1659;-58
2022/09/11 12:55:59;;;;;;;;;;;;;;;25.09;58.13;100293.94;7406111;19;1380;-70
2022/09/11 12:58:33;;;;;;;;;;;;;;;25.13;58.32;100316.94;7405112;19;1395;-70
2022/09/11 13:01:15;;;;;;;;;;;;;;;25.10;58.02;100301.06;7404347;19;1848;-70
2022/09/11 13:03:49;;;;;;;;;;;;;;;25.13;58.18;100309.66;7405194;19;1201;-70
2022/09/11 13:06:20;;;;;;;;;;;;;;;25.09;58.05;100316.47;7405063;19;1788;-69
2022/09/11 13:08:50;;;;;;;;;;;;;;;25.08;58.30;100306.66;7401564;19;1321;-59